Time;durP1;ratioP1;P1;durP2;ratioP2;P2;SDS_P1;SDS_P2;PMS_P1;PMS_P2;Temp;Humidity;BMP_temperature;BMP_pressure;BME280_temperature;BME280_humidity;BME280_pressure;Samples;Min_cycle;Max_cycle;Signal;HPM_P1;HPM_P2
2023/11/30 00:02:04;;;;;;;5.82;5.32;;;;;;;-0.23;100.00;97274.00;15281633;19;20463;-51
2023/11/30 00:07:29;;;;;;;5.60;5.10;;;;;;;-0.23;100.00;97266.06;15298135;19;20021;-50
2023/11/30 00:12:54;;;;;;;5.63;5.10;;;;;;;-0.21;100.00;97261.50;15293748;19;20031;-49
2023/11/30 00:18:21;;;;;;;5.88;5.35;;;;;;;-0.21;100.00;97262.31;15295905;19;20031;-49
2023/11/30 00:23:46;;;;;;;5.55;5.00;;;;;;;-0.23;100.00;97272.19;15298454;19;20496;-51
2023/11/30 00:29:10;;;;;;;5.43;4.93;;;;;;;-0.23;100.00;97258.13;15298922;19;20022;-49
2023/11/30 00:34:44;;;;;;;4.80;4.40;;;;;;;-0.24;100.00;97259.09;15294958;19;20026;-52
2023/11/30 00:40:11;;;;;;;5.32;4.82;;;;;;;-0.25;100.00;97266.19;15296594;19;20020;-49
2023/11/30 00:45:35;;;;;;;5.15;4.65;;;;;;;-0.25;100.00;97260.91;15297328;19;20019;-50
2023/11/30 00:51:02;;;;;;;5.55;4.95;;;;;;;-0.26;100.00;97269.81;15288599;19;21251;-53
2023/11/30 00:56:27;;;;;;;4.75;4.35;;;;;;;-0.35;100.00;97263.44;15299217;19;20727;-53
2023/11/30 01:01:52;;;;;;;5.97;5.15;;;;;;;-0.42;100.00;97266.69;15292268;19;20014;-52
2023/11/30 01:07:19;;;;;;;5.63;4.85;;;;;;;-0.44;100.00;97272.09;15295209;19;20014;-49
2023/11/30 01:12:44;;;;;;;5.65;5.15;;;;;;;-0.46;100.00;97268.72;15290265;19;20037;-52
2023/11/30 01:18:08;;;;;;;5.70;4.93;;;;;;;-0.49;100.00;97274.25;15296993;19;20014;-50
2023/11/30 01:23:35;;;;;;;5.72;5.10;;;;;;;-0.53;100.00;97283.41;15288302;19;20045;-49
2023/11/30 01:29:00;;;;;;;5.93;5.32;;;;;;;-0.54;100.00;97282.56;15297528;19;20011;-49
2023/11/30 01:34:25;;;;;;;6.20;5.50;;;;;;;-0.57;100.00;97279.31;15290616;19;20052;-52
2023/11/30 01:39:52;;;;;;;6.20;5.60;;;;;;;-0.59;100.00;97283.88;15291758;19;20007;-50
2023/11/30 01:45:17;;;;;;;6.00;5.40;;;;;;;-0.60;100.00;97276.91;15294332;19;20029;-50
2023/11/30 01:50:43;;;;;;;6.18;5.57;;;;;;;-0.67;100.00;97271.25;15292698;19;20025;-53
2023/11/30 01:56:13;;;;;;;5.85;5.25;;;;;;;-0.71;100.00;97281.22;15290156;19;20015;-54
2023/11/30 02:01:38;;;;;;;5.90;5.40;;;;;;;-0.70;100.00;97271.47;15289352;19;20018;-50
2023/11/30 02:07:03;;;;;;;6.10;5.50;;;;;;;-0.67;100.00;97268.59;15291658;19;20014;-49
2023/11/30 02:12:30;;;;;;;6.05;5.25;;;;;;;-0.67;100.00;97269.44;15287694;19;20047;-50
2023/11/30 02:17:55;;;;;;;6.05;5.47;;;;;;;-0.68;100.00;97264.25;15294986;19;20074;-49
2023/11/30 02:23:22;;;;;;;5.65;5.13;;;;;;;-0.68;100.00;97249.25;15290776;19;20022;-53
2023/11/30 02:28:47;;;;;;;5.63;5.13;;;;;;;-0.73;100.00;97248.75;15281068;19;20502;-50
2023/11/30 02:34:18;;;;;;;6.00;5.07;;;;;;;-0.78;100.00;97240.34;15288107;19;20042;-51
2023/11/30 02:39:45;;;;;;;5.75;5.15;;;;;;;-0.86;100.00;97246.22;15291172;19;20095;-49
2023/11/30 02:45:10;;;;;;;5.35;4.85;;;;;;;-0.93;100.00;97245.88;15289805;19;20022;-49
2023/11/30 02:50:35;;;;;;;5.75;4.88;;;;;;;-0.99;100.00;97248.97;15278742;19;20014;-47
2023/11/30 02:56:02;;;;;;;5.85;5.25;;;;;;;-1.02;100.00;97254.50;15280475;19;20010;-49
2023/11/30 03:01:27;;;;;;;6.38;5.10;;;;;;;-1.06;100.00;97237.19;15279969;19;20581;-50
2023/11/30 03:06:52;;;;;;;5.38;4.88;;;;;;;-1.10;100.00;97233.09;15290497;19;20689;-48
2023/11/30 03:12:20;;;;;;;5.85;5.25;;;;;;;-1.15;100.00;97224.69;15284103;19;20308;-49
2023/11/30 03:17:44;;;;;;;5.68;4.88;;;;;;;-1.25;100.00;97217.47;15289546;19;20385;-50
2023/11/30 03:23:09;;;;;;;6.32;5.30;;;;;;;-1.33;100.00;97222.47;15287457;19;20474;-47
2023/11/30 03:28:36;;;;;;;5.55;4.95;;;;;;;-1.40;100.00;97216.81;15287367;19;20047;-48
2023/11/30 03:34:01;;;;;;;5.88;5.22;;;;;;;-1.50;100.00;97199.13;15277371;19;20102;-49
2023/11/30 03:39:25;;;;;;;6.00;5.40;;;;;;;-1.57;100.00;97193.47;15289285;19;20366;-48
2023/11/30 03:44:52;;;;;;;6.43;5.50;;;;;;;-1.65;100.00;97193.22;15287057;19;20485;-48
2023/11/30 03:50:18;;;;;;;6.72;5.90;;;;;;;-1.72;100.00;97187.56;15286041;19;20039;-48
2023/11/30 03:55:43;;;;;;;5.97;5.38;;;;;;;-1.81;100.00;97196.13;15285400;19;20015;-53
2023/11/30 04:01:10;;;;;;;7.20;5.90;;;;;;;-1.85;100.00;97200.81;15280426;19;20033;-50
2023/11/30 04:06:35;;;;;;;7.10;5.70;;;;;;;-1.89;100.00;97200.19;15279365;19;20010;-50
2023/11/30 04:11:59;;;;;;;7.30;6.50;;;;;;;-1.88;100.00;97207.16;15280580;19;20018;-50
2023/11/30 04:17:26;;;;;;;10.15;6.63;;;;;;;-1.79;100.00;97220.63;15279361;19;20014;-49
2023/11/30 04:22:51;;;;;;;7.40;6.20;;;;;;;-1.71;100.00;97228.84;15271236;19;20018;-51
2023/11/30 04:28:16;;;;;;;6.90;6.20;;;;;;;-1.64;100.00;97234.50;15282613;19;20015;-52
2023/11/30 04:33:43;;;;;;;6.82;5.85;;;;;;;-1.59;100.00;97224.44;15281402;19;20482;-48
2023/11/30 04:39:08;;;;;;;7.95;6.03;;;;;;;-1.58;100.00;97240.16;15282006;19;20035;-53
2023/11/30 04:44:36;;;;;;;7.25;5.80;;;;;;;-1.61;100.00;97239.56;15276400;19;20018;-49
2023/11/30 04:50:04;;;;;;;7.63;6.38;;;;;;;-1.61;100.00;97240.41;15277632;19;20018;-49
2023/11/30 04:55:29;;;;;;;7.22;6.47;;;;;;;-1.57;100.00;97241.03;15295199;19;20006;-52
2023/11/30 05:00:54;;;;;;;6.97;6.20;;;;;;;-1.56;100.00;97238.25;15296922;19;20018;-53
2023/11/30 05:06:21;;;;;;;7.10;6.40;;;;;;;-1.53;100.00;97233.69;15293850;19;20015;-49
2023/11/30 05:11:46;;;;;;;6.80;5.85;;;;;;;-1.56;100.00;97226.84;15293744;19;20014;-52
2023/11/30 05:17:10;;;;;;;6.57;5.97;;;;;;;-1.60;100.00;97223.59;15296072;19;20025;-52
2023/11/30 05:22:40;;;;;;;6.53;5.88;;;;;;;-1.66;100.00;97216.13;15294514;19;20015;-48
2023/11/30 05:28:06;;;;;;;7.07;6.32;;;;;;;-1.65;100.00;97220.47;15286957;19;20022;-49
2023/11/30 05:33:31;;;;;;;7.00;6.30;;;;;;;-1.67;100.00;97214.44;15289089;19;20404;-51
2023/11/30 05:38:58;;;;;;;7.28;6.35;;;;;;;-1.69;100.00;97220.81;15296114;19;20356;-51
2023/11/30 05:44:23;;;;;;;6.38;5.50;;;;;;;-1.72;100.00;97219.25;15291772;19;20015;-46
2023/11/30 05:49:41;;;;;;;6.93;6.10;;;;;;;-1.79;100.00;97204.78;15288624;19;20028;-50
2023/11/30 05:55:16;;;;;;;7.90;6.75;;;;;;;-1.86;100.00;97205.25;15287605;19;20022;-53
2023/11/30 06:00:41;;;;;;;8.27;6.65;;;;;;;-1.90;100.00;97202.97;15284444;19;20023;-53
2023/11/30 06:06:05;;;;;;;10.40;7.90;;;;;;;-1.91;100.00;97203.91;15296680;19;20017;-54
2023/11/30 06:11:33;;;;;;;9.05;7.32;;;;;;;-1.93;100.00;97208.47;15288137;19;20047;-50
2023/11/30 06:16:58;;;;;;;9.10;7.30;;;;;;;-1.91;100.00;97217.13;15293171;19;20074;-50
2023/11/30 06:22:23;;;;;;;9.95;7.38;;;;;;;-1.99;100.00;97220.31;15290625;19;20038;-47
2023/11/30 06:27:50;;;;;;;8.48;7.57;;;;;;;-2.04;100.00;97209.25;15290172;19;20042;-47
2023/11/30 06:33:15;;;;;;;10.05;7.72;;;;;;;-2.04;100.00;97203.97;15284706;19;20019;-53
2023/11/30 06:38:41;;;;;;;9.27;7.78;;;;;;;-2.00;100.00;97199.31;15290931;19;20053;-47
2023/11/30 06:44:08;;;;;;;9.45;7.47;;;;;;;-1.99;100.00;97208.91;15288550;19;20367;-50
2023/11/30 06:49:33;;;;;;;10.82;8.80;;;;;;;-2.01;100.00;97216.94;15287630;19;20015;-53
2023/11/30 06:55:04;;;;;;;12.15;9.13;;;;;;;-2.00;100.00;97223.06;15285616;19;20482;-51
2023/11/30 07:00:34;;;;;;;11.75;9.30;;;;;;;-1.98;100.00;97227.28;15290265;19;20022;-50
2023/11/30 07:05:58;;;;;;;9.07;8.07;;;;;;;-1.97;100.00;97222.84;15286038;19;20478;-52
2023/11/30 07:11:26;;;;;;;9.38;8.00;;;;;;;-1.95;100.00;97234.13;15287944;19;20025;-53
2023/11/30 07:16:53;;;;;;;8.00;7.20;;;;;;;-1.98;100.00;97239.63;15289962;19;20021;-51
2023/11/30 07:22:18;;;;;;;8.38;6.85;;;;;;;-2.06;100.00;97230.47;15285311;19;20017;-52
2023/11/30 07:27:42;;;;;;;9.15;8.20;;;;;;;-2.11;100.00;97221.22;15287166;19;20029;-49
2023/11/30 07:33:10;;;;;;;12.05;8.30;;;;;;;-2.14;100.00;97221.44;15286153;19;20015;-51
2023/11/30 07:38:34;;;;;;;9.00;7.13;;;;;;;-2.18;100.00;97216.41;15278594;19;20014;-49
2023/11/30 07:43:59;;;;;;;8.25;7.22;;;;;;;-2.14;100.00;97221.44;15284525;19;20020;-52
2023/11/30 07:49:26;;;;;;;7.70;6.93;;;;;;;-2.10;100.00;97234.28;15279082;19;20019;-53
2023/11/30 07:54:58;;;;;;;8.35;7.28;;;;;;;-2.06;100.00;97225.19;15283278;19;20406;-52
2023/11/30 08:00:24;;;;;;;9.75;7.35;;;;;;;-1.99;100.00;97235.28;15284217;19;20014;-52
2023/11/30 08:05:51;;;;;;;8.60;7.40;;;;;;;-1.91;100.00;97239.06;15285565;19;20011;-49
2023/11/30 08:11:17;;;;;;;8.10;7.10;;;;;;;-1.83;100.00;97232.41;15278202;19;20024;-53
2023/11/30 08:16:42;;;;;;;7.03;6.32;;;;;;;-1.77;100.00;97226.66;15287790;19;20006;-48
2023/11/30 08:22:11;;;;;;;8.35;6.25;;;;;;;-1.65;100.00;97219.63;15283882;19;20021;-50
2023/11/30 08:27:36;;;;;;;6.32;5.53;;;;;;;-1.58;100.00;97219.03;15297303;19;20082;-50
2023/11/30 08:33:08;;;;;;;5.68;5.10;;;;;;;-1.47;100.00;97220.88;15297317;19;20010;-53
2023/11/30 08:38:36;;;;;;;7.15;5.65;;;;;;;-1.31;100.00;97217.09;15295856;19;20089;-55
2023/11/30 08:44:01;;;;;;;6.60;5.22;;;;;;;-1.11;100.00;97210.25;15291693;19;20014;-54
2023/11/30 08:49:25;;;;;;;5.88;5.28;;;;;;;-0.96;100.00;97217.00;15296152;19;20014;-53
2023/11/30 08:55:00;;;;;;;7.18;5.30;;;;;;;-0.85;100.00;97221.47;15302313;19;20010;-80
2023/11/30 09:00:25;;;;;;;5.10;4.40;;;;;;;-0.80;100.00;97226.41;15309585;19;20006;-80
2023/11/30 09:05:49;;;;;;;5.10;4.60;;;;;;;-0.84;100.00;97219.66;15312698;19;20025;-80
2023/11/30 09:11:17;;;;;;;4.60;4.20;;;;;;;-0.85;100.00;97212.69;15302492;19;20022;-82
2023/11/30 09:16:42;;;;;;;6.68;5.07;;;;;;;-0.81;100.00;97219.44;15305298;19;20021;-80
2023/11/30 09:22:07;;;;;;;6.07;5.15;;;;;;;-0.72;100.00;97218.69;15305212;19;20014;-81
2023/11/30 09:27:34;;;;;;;5.38;4.88;;;;;;;-0.56;100.00;97214.88;15304417;19;20094;-82
2023/11/30 09:33:00;;;;;;;5.00;4.50;;;;;;;-0.39;100.00;97205.59;15311331;19;20017;-79
2023/11/30 09:38:24;;;;;;;5.45;4.88;;;;;;;-0.30;100.00;97198.72;15308612;19;20031;-81
2023/11/30 09:43:52;;;;;;;5.47;4.97;;;;;;;-0.23;100.00;97195.44;15316122;19;20018;-79
2023/11/30 09:49:16;;;;;;;5.82;4.90;;;;;;;-0.06;100.00;97195.88;15305830;19;20029;-83
2023/11/30 09:54:52;;;;;;;5.32;4.82;;;;;;;0.06;100.00;97189.59;15307814;19;20020;-80
2023/11/30 10:00:20;;;;;;;5.50;5.00;;;;;;;0.15;100.00;97191.47;15299624;19;20015;-81
2023/11/30 10:05:44;;;;;;;5.40;4.78;;;;;;;0.23;100.00;97185.53;15300665;19;20014;-81
2023/11/30 10:11:09;;;;;;;6.70;4.85;;;;;;;0.29;100.00;97179.72;15299276;19;20011;-81
2023/11/30 10:16:37;;;;;;;5.97;5.03;;;;;;;0.36;100.00;97166.00;15045574;19;5000758;-81
2023/11/30 10:22:03;;;;;;;5.70;5.20;;;;;;;0.42;100.00;97158.38;15312868;19;20011;-82
2023/11/30 10:27:29;;;;;;;5.63;4.90;;;;;;;0.48;100.00;97158.81;15309495;19;20027;-80
2023/11/30 10:32:57;;;;;;;5.10;4.60;;;;;;;0.49;100.00;97148.09;15307108;19;20362;-81
2023/11/30 10:38:31;;;;;;;5.30;4.80;;;;;;;0.54;100.00;97140.56;15303994;19;20003;-80
2023/11/30 10:43:59;;;;;;;5.43;4.50;;;;;;;0.55;100.00;97136.97;15307776;19;20073;-81
2023/11/30 10:49:28;;;;;;;6.22;4.80;;;;;;;0.53;100.00;97128.28;15298768;19;20423;-81
2023/11/30 10:55:09;;;;;;;6.25;5.30;;;;;;;0.58;100.00;97120.81;15305678;19;20755;-81
2023/11/30 11:00:39;;;;;;;6.15;5.55;;;;;;;0.71;100.00;97119.75;15301688;19;20022;-81
2023/11/30 11:06:07;;;;;;;5.97;5.40;;;;;;;0.78;100.00;97110.31;15310706;19;20015;-81
2023/11/30 11:11:33;;;;;;;5.88;5.25;;;;;;;0.84;100.00;97099.19;15307476;19;20017;-81
2023/11/30 11:16:57;;;;;;;5.40;4.90;;;;;;;0.90;100.00;97092.50;15307329;19;20041;-81
2023/11/30 11:22:28;;;;;;;6.03;5.20;;;;;;;1.01;100.00;97091.56;15303735;19;20027;-80
2023/11/30 11:27:54;;;;;;;5.22;4.72;;;;;;;1.05;100.00;97080.56;15044479;19;5000772;-80
2023/11/30 11:33:21;;;;;;;5.93;5.35;;;;;;;1.13;100.00;97076.41;15304643;19;20020;-80
2023/11/30 11:38:48;;;;;;;6.25;5.65;;;;;;;1.20;100.00;97080.16;15312783;19;20556;-80
2023/11/30 11:44:13;;;;;;;6.28;5.68;;;;;;;1.26;100.00;97070.81;15296266;19;20010;-80
2023/11/30 11:49:41;;;;;;;6.22;5.63;;;;;;;1.34;100.00;97065.69;15292219;19;20077;-80
2023/11/30 11:55:17;;;;;;;6.03;5.43;;;;;;;1.37;100.00;97060.97;15286554;19;20014;-80
2023/11/30 12:00:43;;;;;;;6.10;5.50;;;;;;;1.42;100.00;97055.22;15293619;19;20035;-80
2023/11/30 12:06:08;;;;;;;6.40;5.80;;;;;;;1.41;100.00;97052.72;15313431;19;20018;-81
2023/11/30 12:11:37;;;;;;;6.32;5.75;;;;;;;1.35;100.00;97038.19;15304584;19;20015;-80
2023/11/30 12:17:01;;;;;;;7.90;6.32;;;;;;;1.30;100.00;97035.09;15310658;19;20017;-80
2023/11/30 12:22:26;;;;;;;7.28;6.20;;;;;;;1.23;100.00;97014.41;15314233;19;20014;-78
2023/11/30 12:27:53;;;;;;;6.05;5.50;;;;;;;1.16;100.00;97017.78;15300476;19;20010;-79
2023/11/30 12:33:18;;;;;;;8.40;6.05;;;;;;;1.10;100.00;97020.97;15321798;19;20010;-80
2023/11/30 12:38:42;;;;;;;7.30;5.80;;;;;;;1.08;100.00;97027.25;15305597;19;20031;-78
2023/11/30 12:44:10;;;;;;;6.70;6.10;;;;;;;1.07;100.00;97038.81;15312425;19;20006;-79
2023/11/30 12:49:34;;;;;;;7.82;6.20;;;;;;;1.06;100.00;97039.78;15309893;19;20382;-80
2023/11/30 12:55:05;;;;;;;8.38;6.45;;;;;;;1.08;100.00;97047.63;15313858;19;20078;-81
2023/11/30 13:00:37;;;;;;;9.85;7.50;;;;;;;1.08;100.00;97042.31;15314312;19;20411;-82
2023/11/30 13:06:02;;;;;;;9.05;8.15;;;;;;;1.06;100.00;97054.88;15341922;19;20018;-81
2023/11/30 13:11:27;;;;;;;8.25;7.40;;;;;;;1.03;100.00;97049.84;15328858;19;20018;-80
2023/11/30 13:16:54;;;;;;;10.63;8.13;;;;;;;0.99;100.00;97049.28;15305986;19;20013;-79
2023/11/30 13:22:20;;;;;;;8.75;7.88;;;;;;;0.99;100.00;97051.91;15307522;19;20023;-81
2023/11/30 13:27:45;;;;;;;10.02;7.90;;;;;;;0.96;100.00;97059.31;15311444;19;20011;-79
2023/11/30 13:33:13;;;;;;;8.70;7.80;;;;;;;0.89;100.00;97048.41;15307279;19;20024;-80
2023/11/30 13:38:40;;;;;;;12.75;8.57;;;;;;;0.86;100.00;97038.91;15308321;19;20070;-81
2023/11/30 13:44:06;;;;;;;9.32;8.32;;;;;;;0.88;100.00;97039.59;15310656;19;20058;-82
2023/11/30 13:49:33;;;;;;;9.95;8.95;;;;;;;0.88;100.00;97042.25;15315957;19;20018;-81
2023/11/30 13:55:04;;;;;;;11.68;10.10;;;;;;;0.87;100.00;97045.91;15312062;19;20019;-82
2023/11/30 14:00:29;;;;;;;11.48;10.32;;;;;;;0.78;100.00;97041.38;15305894;19;20022;-83
2023/11/30 14:05:56;;;;;;;13.38;11.80;;;;;;;0.68;100.00;97027.25;15304062;19;20010;-82
2023/11/30 14:11:22;;;;;;;13.52;12.20;;;;;;;0.54;100.00;97028.47;15301318;19;20007;-81
2023/11/30 14:16:46;;;;;;;12.68;11.32;;;;;;;0.48;100.00;97019.22;15312166;19;20026;-85
2023/11/30 14:22:14;;;;;;;11.95;10.73;;;;;;;0.39;100.00;97014.72;15309052;19;20010;-83
2023/11/30 14:27:38;;;;;;;11.95;10.65;;;;;;;0.30;100.00;97019.81;15316207;19;20097;-80
2023/11/30 14:33:03;;;;;;;12.95;11.55;;;;;;;0.22;100.00;97024.94;15316989;19;20018;-80
2023/11/30 14:38:34;;;;;;;12.88;11.35;;;;;;;0.10;100.00;97029.50;15314569;19;20011;-82
2023/11/30 14:43:59;;;;;;;13.80;12.30;;;;;;;-0.03;100.00;97023.56;15309315;19;20054;-80
2023/11/30 14:49:23;;;;;;;14.07;12.57;;;;;;;-0.09;100.00;97026.69;15317805;19;20371;-82
2023/11/30 14:54:53;;;;;;;15.07;12.65;;;;;;;-0.14;100.00;97027.09;15339992;19;20022;-82
2023/11/30 15:00:27;;;;;;;15.13;13.07;;;;;;;-0.21;100.00;97029.41;15338378;19;20007;-81
2023/11/30 15:05:52;;;;;;;16.42;14.57;;;;;;;-0.30;100.00;97024.88;15307711;19;20018;-83
2023/11/30 15:11:19;;;;;;;25.70;20.30;;;;;;;-0.33;100.00;97026.00;15286230;19;20031;-79
2023/11/30 15:16:44;;;;;;;16.08;14.00;;;;;;;-0.35;100.00;97042.94;15294168;19;20014;-77
2023/11/30 15:22:08;;;;;;;17.40;14.55;;;;;;;-0.35;100.00;97033.22;15299109;19;20022;-77
2023/11/30 15:27:37;;;;;;;16.58;14.10;;;;;;;-0.32;100.00;97048.84;15301333;19;20078;-84
2023/11/30 15:33:01;;;;;;;19.55;15.93;;;;;;;-0.32;100.00;97048.84;15314954;19;20469;-82
2023/11/30 15:38:37;;;;;;;18.60;15.52;;;;;;;-0.33;100.00;97041.88;15315814;19;20022;-83
2023/11/30 15:44:05;;;;;;;19.80;16.30;;;;;;;-0.33;100.00;97057.75;15321236;19;20018;-80
2023/11/30 15:49:31;;;;;;;18.55;16.13;;;;;;;-0.30;100.00;97066.41;15307397;19;20014;-80
2023/11/30 15:54:56;;;;;;;17.98;15.90;;;;;;;-0.30;100.00;97074.34;15313652;19;20081;-80
2023/11/30 16:00:24;;;;;;;17.90;15.95;;;;;;;-0.29;100.00;97073.38;15302858;19;20379;-78
2023/11/30 16:05:49;;;;;;;19.85;15.32;;;;;;;-0.31;100.00;97068.19;15301407;19;20085;-78
2023/11/30 16:11:20;;;;;;;19.35;16.38;;;;;;;-0.32;100.00;97075.31;15295247;19;20102;-78
2023/11/30 16:16:50;;;;;;;23.15;18.40;;;;;;;-0.35;100.00;97059.69;15298957;19;20031;-79
2023/11/30 16:22:15;;;;;;;27.98;20.23;;;;;;;-0.34;100.00;97048.13;15297654;19;20015;-78
2023/11/30 16:27:40;;;;;;;28.67;21.98;;;;;;;-0.36;100.00;97062.47;15296420;19;20018;-77
2023/11/30 16:33:08;;;;;;;32.92;22.35;;;;;;;-0.37;100.00;97056.31;15293950;19;20010;-78
2023/11/30 16:38:34;;;;;;;26.63;20.60;;;;;;;-0.38;100.00;97057.28;15268062;19;20013;-78
2023/11/30 16:43:58;;;;;;;24.10;18.38;;;;;;;-0.38;100.00;97065.22;15292997;19;20756;-77
2023/11/30 16:49:26;;;;;;;19.63;17.52;;;;;;;-0.39;100.00;97055.59;15306435;19;20011;-79
2023/11/30 16:54:57;;;;;;;19.17;17.02;;;;;;;-0.28;100.00;97054.72;15305606;19;20082;-79
2023/11/30 17:00:22;;;;;;;19.02;17.00;;;;;;;-0.30;100.00;97055.81;15306894;19;20010;-81
2023/11/30 17:05:49;;;;;;;23.90;18.77;;;;;;;-0.33;100.00;97054.25;15311246;19;20015;-81
2023/11/30 17:11:14;;;;;;;24.02;19.70;;;;;;;-0.37;100.00;97027.19;15308577;19;20007;-82
2023/11/30 17:16:39;;;;;;;24.27;19.55;;;;;;;-0.36;100.00;97028.06;15304208;19;20478;-81
2023/11/30 17:22:07;;;;;;;21.90;18.63;;;;;;;-0.38;100.00;97028.16;15318000;19;20070;-78
2023/11/30 17:27:31;;;;;;;22.20;19.73;;;;;;;-0.40;100.00;97030.09;15316264;19;20014;-81
2023/11/30 17:32:56;;;;;;;25.15;19.63;;;;;;;-0.40;100.00;97031.91;15313459;19;20018;-84
2023/11/30 17:38:23;;;;;;;23.08;19.75;;;;;;;-0.42;100.00;97039.13;15312019;19;20018;-81
2023/11/30 17:43:50;;;;;;;24.33;20.58;;;;;;;-0.43;100.00;97038.31;15334436;19;20018;-90
2023/11/30 17:49:19;;;;;;;24.60;19.58;;;;;;;-0.41;100.00;97028.41;15324972;19;20010;-89
2023/11/30 17:54:48;;;;;;;22.23;19.40;;;;;;;-0.43;100.00;97027.72;15331290;19;20062;-89
2023/11/30 18:00:21;;;;;;;23.35;20.08;;;;;;;-0.45;100.00;97040.22;15343817;19;20022;-87
2023/11/30 18:05:48;;;;;;;24.67;19.85;;;;;;;-0.44;100.00;97036.63;15315577;19;20091;-89
2023/11/30 18:11:20;;;;;;;20.65;18.45;;;;;;;-0.44;100.00;97043.72;15333728;19;20039;-87
2023/11/30 18:16:46;;;;;;;23.85;19.75;;;;;;;-0.43;100.00;97046.25;15315614;19;20010;-86
2023/11/30 18:22:14;;;;;;;19.77;17.08;;;;;;;-0.43;100.00;97051.53;15306470;19;20019;-88
2023/11/30 18:27:42;;;;;;;19.20;17.23;;;;;;;-0.41;100.00;97048.75;15311957;19;20010;-89
2023/11/30 18:33:20;;;;;;;20.80;18.25;;;;;;;-0.40;100.00;97050.44;15306505;19;20017;-87
2023/11/30 18:38:45;;;;;;;20.08;17.88;;;;;;;-0.38;100.00;97049.34;15315843;19;20332;-86
2023/11/30 18:44:12;;;;;;;20.40;17.92;;;;;;;-0.37;100.00;97040.44;15305638;19;20022;-86
2023/11/30 18:49:40;;;;;;;22.75;18.65;;;;;;;-0.37;100.00;97037.78;15317097;19;20011;-87
2023/11/30 18:55:12;;;;;;;20.63;18.10;;;;;;;-0.38;100.00;97017.59;15311046;19;20025;-88
2023/11/30 19:00:41;;;;;;;20.27;18.05;;;;;;;-0.38;100.00;97019.41;15306970;19;20028;-87
2023/11/30 19:06:09;;;;;;;20.17;17.50;;;;;;;-0.39;100.00;97020.38;15313351;19;20022;-89
2023/11/30 19:11:34;;;;;;;21.98;19.13;;;;;;;-0.38;100.00;97037.94;15313019;19;20010;-88
2023/11/30 19:17:16;;;;;;;23.60;19.33;;;;;;;-0.39;100.00;97044.19;15310038;19;20419;-89
2023/11/30 19:22:42;;;;;;;23.42;19.83;;;;;;;-0.39;100.00;97026.47;15309347;19;20019;-87
2023/11/30 19:28:13;;;;;;;26.23;20.58;;;;;;;-0.40;100.00;97047.78;15306273;19;20018;-88
2023/11/30 19:45:08;;;;;;;27.15;21.10;;;;;;;-0.44;100.00;97046.34;15319989;19;20006;-88
2023/11/30 19:50:34;;;;;;;25.70;21.17;;;;;;;-0.45;100.00;97039.38;15324141;19;20007;-89
2023/11/30 19:56:00;;;;;;;26.27;20.45;;;;;;;-0.43;100.00;97050.69;15339084;19;20015;-89
2023/11/30 20:01:28;;;;;;;24.65;21.30;;;;;;;-0.44;100.00;97054.28;15311631;19;20470;-57
2023/11/30 20:06:52;;;;;;;25.33;20.85;;;;;;;-0.47;100.00;97048.28;15277019;19;20024;-54
2023/11/30 20:12:17;;;;;;;23.42;18.85;;;;;;;-0.39;100.00;97045.00;15284935;19;20019;-54
2023/11/30 20:17:44;;;;;;;24.58;20.25;;;;;;;-0.35;100.00;97053.53;15287561;19;20477;-53
2023/11/30 20:23:09;;;;;;;23.50;19.25;;;;;;;-0.33;100.00;97060.38;15292489;19;20014;-51
2023/11/30 20:28:34;;;;;;;25.65;20.67;;;;;;;-0.29;100.00;97068.91;15301239;19;20034;-55
2023/11/30 20:34:02;;;;;;;22.42;19.35;;;;;;;-0.26;100.00;97054.56;15292929;19;20091;-53
2023/11/30 20:39:27;;;;;;;21.73;19.38;;;;;;;-0.25;100.00;97058.91;15300115;19;20477;-49
2023/11/30 20:44:53;;;;;;;23.02;19.63;;;;;;;-0.21;100.00;97066.47;15295556;19;20662;-51
2023/11/30 20:50:20;;;;;;;22.05;19.65;;;;;;;-0.19;100.00;97085.72;15295167;19;20011;-48
2023/11/30 20:55:46;;;;;;;22.23;18.58;;;;;;;-0.19;100.00;97069.81;15297784;19;20495;-52
2023/11/30 21:01:10;;;;;;;21.83;19.33;;;;;;;-0.21;100.00;97086.81;15292378;19;20013;-52
2023/11/30 21:06:40;;;;;;;25.13;19.60;;;;;;;-0.24;100.00;97082.63;15288738;19;20023;-55
2023/11/30 21:12:04;;;;;;;22.17;19.75;;;;;;;-0.25;100.00;97074.78;15292144;19;20015;-54
2023/11/30 21:17:32;;;;;;;24.67;20.30;;;;;;;-0.27;100.00;97079.34;15292157;19;20010;-53
2023/11/30 21:22:59;;;;;;;28.00;22.10;;;;;;;-0.29;100.00;97078.66;15292311;19;20022;-53
2023/11/30 21:28:24;;;;;;;26.67;22.70;;;;;;;-0.28;100.00;97080.31;15297210;19;20018;-52
2023/11/30 21:33:48;;;;;;;29.50;22.55;;;;;;;-0.33;100.00;97078.91;15289050;19;20711;-53
2023/11/30 21:39:16;;;;;;;28.88;22.83;;;;;;;-0.35;100.00;97086.13;15283347;19;20484;-51
2023/11/30 21:44:41;;;;;;;30.42;25.35;;;;;;;-0.38;100.00;97083.72;15290530;19;20017;-54
2023/11/30 21:50:17;;;;;;;36.63;26.02;;;;;;;-0.40;100.00;97088.31;15295141;19;20023;-56
2023/11/30 21:55:48;;;;;;;32.88;24.65;;;;;;;-0.44;100.00;97078.97;15291724;19;20017;-54
2023/11/30 22:01:13;;;;;;;33.83;25.48;;;;;;;-0.45;100.00;97077.28;15290005;19;20029;-51
2023/11/30 22:06:38;;;;;;;32.17;25.60;;;;;;;-0.43;100.00;97083.28;15295228;19;20031;-54
2023/11/30 22:12:07;;;;;;;36.70;27.08;;;;;;;-0.43;100.00;97083.28;15293675;19;20476;-52
2023/11/30 22:17:31;;;;;;;33.17;25.90;;;;;;;-0.45;100.00;97085.22;15293293;19;20022;-54
2023/11/30 22:22:56;;;;;;;35.72;25.83;;;;;;;-0.45;100.00;97090.50;15291606;19;20058;-51
2023/11/30 22:28:23;;;;;;;36.00;26.02;;;;;;;-0.47;100.00;97093.25;15293001;19;20473;-51
2023/11/30 22:33:50;;;;;;;38.85;27.58;;;;;;;-0.47;100.00;97097.72;15291647;19;20018;-51
2023/11/30 22:39:14;;;;;;;39.00;27.77;;;;;;;-0.47;100.00;97100.38;15288082;19;20011;-52
2023/11/30 22:44:42;;;;;;;40.10;27.73;;;;;;;-0.48;100.00;97096.91;15287397;19;20014;-54
2023/11/30 22:50:06;;;;;;;39.13;27.10;;;;;;;-0.48;100.00;97104.81;15292016;19;20013;-53
2023/11/30 22:55:31;;;;;;;39.22;27.48;;;;;;;-0.48;100.00;97099.53;15288636;19;20487;-51
2023/11/30 23:01:00;;;;;;;37.30;27.15;;;;;;;-0.49;100.00;97104.94;15289022;19;20024;-54
2023/11/30 23:06:24;;;;;;;36.72;25.85;;;;;;;-0.48;100.00;97098.69;15292639;19;20456;-51
2023/11/30 23:11:49;;;;;;;35.70;26.67;;;;;;;-0.48;100.00;97093.38;15282308;19;21364;-52
2023/11/30 23:17:16;;;;;;;41.42;26.95;;;;;;;-0.50;100.00;97087.38;15290408;19;20010;-51
2023/11/30 23:22:40;;;;;;;39.55;27.70;;;;;;;-0.51;100.00;97091.84;15285989;19;20440;-51
2023/11/30 23:28:06;;;;;;;42.05;27.92;;;;;;;-0.51;100.00;97093.63;15289528;19;20357;-50
2023/11/30 23:33:34;;;;;;;40.72;28.00;;;;;;;-0.51;100.00;97096.28;15283824;19;20014;-51
2023/11/30 23:38:58;;;;;;;41.85;27.52;;;;;;;-0.53;100.00;97085.84;15030950;19;5001652;-56
2023/11/30 23:44:23;;;;;;;41.83;28.50;;;;;;;-0.53;100.00;97088.47;15281307;19;20463;-51
2023/11/30 23:49:50;;;;;;;41.28;27.75;;;;;;;-0.53;100.00;97091.13;15284682;19;20022;-51
2023/11/30 23:55:15;;;;;;;38.97;26.25;;;;;;;-0.52;100.00;97095.44;15283424;19;20033;-51
